createdAt,value
2022-09-21T00:01:42.395Z,9.20
2022-09-21T00:04:11.699Z,9.20
2022-09-21T00:06:40.450Z,9.20
2022-09-21T00:09:10.535Z,9.30
2022-09-21T00:11:39.641Z,9.30
2022-09-21T00:14:12.283Z,9.40
2022-09-21T00:16:42.214Z,9.40
2022-09-21T00:19:12.024Z,9.40
2022-09-21T00:21:41.134Z,9.50
2022-09-21T00:24:12.334Z,9.50
2022-09-21T00:26:40.983Z,9.50
2022-09-21T00:29:09.674Z,9.50
2022-09-21T00:31:38.463Z,9.50
2022-09-21T00:34:08.176Z,9.50
2022-09-21T00:36:37.036Z,9.50
2022-09-21T00:39:06.058Z,9.50
2022-09-21T00:41:36.691Z,9.60
2022-09-21T00:44:27.356Z,9.60
2022-09-21T00:47:00.146Z,9.70
2022-09-21T00:49:29.599Z,9.60
2022-09-21T00:52:00.410Z,9.60
2022-09-21T00:54:33.566Z,9.60
2022-09-21T00:57:04.799Z,9.60
2022-09-21T00:59:38.412Z,9.70
2022-09-21T01:02:08.323Z,9.70
2022-09-21T01:04:37.505Z,9.70
2022-09-21T01:07:12.489Z,9.70
2022-09-21T01:09:42.155Z,9.80
2022-09-21T01:12:31.542Z,9.80
2022-09-21T01:15:16.264Z,9.70
2022-09-21T01:17:53.280Z,9.70
2022-09-21T01:21:16.999Z,9.70
2022-09-21T01:24:21.847Z,9.70
2022-09-21T01:27:28.660Z,9.70
2022-09-21T01:30:02.416Z,9.70
2022-09-21T01:32:37.329Z,9.70
2022-09-21T01:35:13.786Z,9.70
2022-09-21T01:37:49.111Z,9.70
2022-09-21T01:40:25.453Z,9.70
2022-09-21T01:42:57.623Z,9.70
2022-09-21T01:45:33.673Z,9.70
2022-09-21T01:48:03.469Z,9.60
2022-09-21T01:50:38.085Z,9.60
2022-09-21T01:53:12.924Z,9.60
2022-09-21T01:55:45.064Z,9.60
2022-09-21T01:58:19.920Z,9.60
2022-09-21T02:00:52.305Z,9.60
2022-09-21T02:03:29.637Z,9.60
2022-09-21T02:05:59.671Z,9.60
2022-09-21T02:08:28.694Z,9.60
2022-09-21T02:10:57.272Z,9.70
2022-09-21T02:13:28.200Z,9.60
2022-09-21T02:16:23.371Z,9.60
2022-09-21T02:19:09.455Z,9.50
2022-09-21T02:21:53.082Z,9.40
2022-09-21T02:24:35.084Z,9.50
2022-09-21T02:27:07.334Z,9.50
2022-09-21T02:29:48.779Z,9.50
2022-09-21T02:32:29.138Z,9.40
2022-09-21T02:35:04.773Z,9.30
2022-09-21T02:37:40.389Z,9.30
2022-09-21T02:40:22.454Z,9.30
2022-09-21T02:42:55.905Z,9.30
2022-09-21T02:45:28.844Z,9.30
2022-09-21T02:48:02.242Z,9.20
2022-09-21T02:50:37.811Z,9.30
2022-09-21T02:53:08.413Z,9.30
2022-09-21T02:55:36.927Z,9.20
2022-09-21T02:58:09.101Z,9.30
2022-09-21T03:00:38.727Z,9.20
2022-09-21T03:03:18.454Z,9.10
2022-09-21T03:05:50.304Z,9.10
2022-09-21T03:08:19.549Z,9.00
2022-09-21T03:10:49.142Z,8.90
2022-09-21T03:13:17.673Z,8.90
2022-09-21T03:15:46.660Z,8.90
2022-09-21T03:18:16.687Z,8.80
2022-09-21T03:20:46.632Z,8.90
2022-09-21T03:23:15.333Z,8.90
2022-09-21T03:25:46.038Z,8.80
2022-09-21T03:28:15.410Z,8.70
2022-09-21T03:30:44.404Z,8.50
2022-09-21T03:33:13.683Z,8.50
2022-09-21T03:35:43.730Z,8.50
2022-09-21T03:38:12.234Z,8.30
2022-09-21T03:40:40.507Z,8.20
2022-09-21T03:43:08.780Z,8.10
2022-09-21T03:45:38.064Z,8.10
2022-09-21T03:48:06.357Z,8.00
2022-09-21T03:50:34.701Z,8.00
2022-09-21T03:53:04.539Z,8.10
2022-09-21T03:55:33.259Z,8.10
2022-09-21T03:58:01.646Z,8.10
2022-09-21T04:00:31.221Z,8.00
2022-09-21T04:02:59.674Z,8.10
2022-09-21T04:05:28.013Z,8.10
2022-09-21T04:07:57.420Z,8.20
2022-09-21T04:10:29.300Z,8.10
2022-09-21T04:13:00.175Z,8.10
2022-09-21T04:15:29.311Z,8.00
2022-09-21T04:17:57.930Z,8.10
2022-09-21T04:20:26.630Z,8.10
2022-09-21T04:22:54.894Z,8.10
2022-09-21T04:25:23.100Z,8.00
2022-09-21T04:27:52.752Z,8.00
2022-09-21T04:30:21.182Z,8.00
2022-09-21T04:32:50.685Z,8.10
2022-09-21T04:35:18.995Z,8.10
2022-09-21T04:37:47.219Z,8.20
2022-09-21T04:40:15.557Z,8.10
2022-09-21T04:42:43.835Z,8.10
2022-09-21T04:45:13.788Z,8.10
2022-09-21T04:47:42.041Z,8.20
2022-09-21T04:50:11.068Z,8.20
2022-09-21T04:52:39.337Z,8.20
2022-09-21T04:55:08.813Z,8.20
2022-09-21T04:57:37.110Z,8.30
2022-09-21T05:00:06.942Z,8.30
2022-09-21T05:02:36.524Z,8.20
2022-09-21T05:05:05.317Z,8.30
2022-09-21T05:07:33.557Z,8.30
2022-09-21T05:10:03.554Z,8.20
2022-09-21T05:12:31.905Z,8.20
2022-09-21T05:15:00.549Z,8.10
2022-09-21T05:17:29.484Z,8.00
2022-09-21T05:19:59.118Z,8.10
2022-09-21T05:22:28.898Z,8.00
2022-09-21T05:24:57.141Z,7.90
2022-09-21T05:27:25.556Z,7.80
2022-09-21T05:29:54.663Z,7.80
2022-09-21T05:32:30.090Z,7.80
2022-09-21T05:35:10.175Z,7.80
2022-09-21T05:37:54.968Z,7.90
2022-09-21T05:40:23.962Z,7.80
2022-09-21T05:42:53.141Z,7.90
2022-09-21T05:45:23.112Z,7.90
2022-09-21T05:48:06.022Z,8.00
2022-09-21T05:50:58.311Z,8.00
2022-09-21T05:53:55.901Z,7.90
2022-09-21T05:56:45.173Z,7.90
2022-09-21T05:59:36.826Z,7.90
2022-09-21T06:02:20.133Z,7.90
2022-09-21T06:04:49.976Z,8.00
2022-09-21T06:07:19.666Z,8.00
2022-09-21T06:09:47.918Z,8.00
2022-09-21T06:12:16.234Z,8.10
2022-09-21T06:14:44.516Z,8.20
2022-09-21T06:17:13.055Z,8.20
2022-09-21T06:19:41.313Z,8.30
2022-09-21T06:22:09.518Z,8.50
2022-09-21T06:24:39.121Z,8.50
2022-09-21T06:27:07.502Z,8.60
2022-09-21T06:29:35.691Z,8.70
2022-09-21T06:32:05.103Z,8.80
2022-09-21T06:34:33.333Z,8.90
2022-09-21T06:37:01.636Z,9.00
2022-09-21T06:39:29.884Z,9.00
2022-09-21T06:41:59.610Z,9.10
2022-09-21T06:44:29.903Z,9.20
2022-09-21T06:46:58.293Z,9.30
2022-09-21T06:49:28.671Z,9.40
2022-09-21T06:51:57.092Z,9.40
2022-09-21T06:54:25.682Z,9.50
2022-09-21T06:56:56.836Z,9.60
2022-09-21T06:59:29.537Z,9.60
2022-09-21T07:01:58.616Z,9.70
2022-09-21T07:04:29.040Z,9.70
2022-09-21T07:06:57.830Z,9.70
2022-09-21T07:12:15.007Z,9.90
2022-09-21T07:14:46.280Z,10.00
2022-09-21T07:17:16.070Z,10.10
2022-09-21T07:19:44.404Z,10.10
2022-09-21T07:22:12.717Z,10.10
2022-09-21T07:24:40.957Z,10.20
2022-09-21T07:27:09.229Z,10.20
2022-09-21T07:29:37.472Z,10.20
2022-09-21T07:32:07.147Z,10.30
2022-09-21T07:34:38.437Z,10.30
2022-09-21T07:37:07.015Z,10.40
2022-09-21T07:39:35.593Z,10.40
2022-09-21T07:42:03.817Z,10.50
2022-09-21T07:44:32.057Z,10.60
2022-09-21T07:47:00.546Z,10.60
2022-09-21T07:49:30.210Z,10.70
2022-09-21T07:52:03.517Z,10.70
2022-09-21T07:54:33.790Z,10.80
2022-09-21T07:57:19.334Z,10.90
2022-09-21T07:59:47.546Z,11.10
2022-09-21T08:02:15.882Z,11.30
2022-09-21T08:04:45.533Z,11.50
2022-09-21T08:07:13.788Z,11.70
2022-09-21T08:09:42.054Z,11.80
2022-09-21T08:12:11.172Z,11.80
2022-09-21T08:14:39.444Z,11.90
2022-09-21T08:17:07.667Z,12.10
2022-09-21T08:19:36.308Z,12.10
2022-09-21T08:22:06.490Z,12.20
2022-09-21T08:24:35.217Z,12.40
2022-09-21T08:27:03.516Z,12.60
2022-09-21T08:29:31.795Z,12.80
2022-09-21T08:32:00.130Z,13.00
2022-09-21T08:34:28.396Z,13.10
2022-09-21T08:36:56.640Z,13.30
2022-09-21T08:39:26.359Z,13.60
2022-09-21T08:42:11.992Z,13.90
2022-09-21T08:44:43.412Z,14.10
2022-09-21T08:47:18.096Z,14.40
2022-09-21T08:49:52.161Z,14.50
2022-09-21T08:52:21.798Z,14.70
2022-09-21T08:54:56.949Z,15.00
2022-09-21T08:57:31.690Z,15.00
2022-09-21T09:00:01.982Z,15.30
2022-09-21T09:02:42.684Z,15.30
2022-09-21T09:05:30.470Z,15.40
2022-09-21T09:08:19.689Z,15.70
2022-09-21T09:11:05.235Z,15.90
2022-09-21T09:13:49.046Z,16.00
2022-09-21T09:16:28.208Z,16.10
2022-09-21T09:19:04.898Z,16.10
2022-09-21T09:21:37.781Z,16.30
2022-09-21T09:24:12.413Z,16.40
2022-09-21T09:26:47.560Z,16.40
2022-09-21T09:29:23.152Z,16.30
2022-09-21T09:31:54.748Z,16.20
2022-09-21T09:34:30.673Z,16.30
2022-09-21T09:37:02.043Z,16.40
2022-09-21T09:39:31.849Z,16.50
2022-09-21T09:42:43.112Z,16.70
2022-09-21T09:45:25.736Z,16.90
2022-09-21T09:48:08.132Z,17.10
2022-09-21T09:50:39.133Z,17.20
2022-09-21T09:53:12.108Z,17.10
2022-09-21T09:55:43.792Z,17.10
2022-09-21T09:58:20.328Z,17.30
2022-09-21T10:00:53.278Z,17.40
2022-09-21T10:03:24.348Z,17.40
2022-09-21T10:05:52.649Z,17.40
2022-09-21T10:08:53.196Z,17.40
2022-09-21T10:11:21.721Z,17.60
2022-09-21T10:13:51.350Z,17.70
2022-09-21T10:16:23.629Z,17.80
2022-09-21T10:18:56.392Z,18.00
2022-09-21T10:21:26.739Z,18.10
2022-09-21T10:24:00.219Z,18.10
2022-09-21T10:26:33.474Z,18.10
2022-09-21T10:29:20.900Z,18.00
2022-09-21T10:31:57.666Z,17.90
2022-09-21T10:34:31.385Z,18.20
2022-09-21T10:37:02.185Z,18.50
2022-09-21T10:39:32.505Z,18.80
2022-09-21T10:42:07.755Z,18.70
2022-09-21T10:44:47.123Z,18.60
2022-09-21T10:47:22.570Z,18.50
2022-09-21T10:49:53.877Z,18.40
2022-09-21T10:52:33.557Z,18.20
2022-09-21T10:55:02.352Z,17.90
2022-09-21T10:57:32.633Z,17.80
2022-09-21T11:00:29.489Z,17.50
2022-09-21T11:03:01.062Z,17.30
2022-09-21T11:05:34.231Z,17.20
2022-09-21T11:08:08.324Z,17.10
2022-09-21T11:10:45.711Z,17.70
2022-09-21T11:13:27.730Z,18.00
2022-09-21T11:16:05.451Z,18.20
2022-09-21T11:18:46.694Z,18.40
2022-09-21T11:21:21.096Z,18.10
2022-09-21T11:24:04.364Z,18.10
2022-09-21T11:26:45.424Z,18.30
2022-09-21T11:29:16.962Z,18.30
2022-09-21T11:32:10.960Z,18.20
2022-09-21T11:35:29.009Z,17.80
2022-09-21T11:38:13.658Z,17.70
2022-09-21T11:41:13.926Z,17.50
2022-09-21T11:44:02.876Z,17.30
2022-09-21T11:46:41.576Z,17.30
2022-09-21T11:49:38.181Z,17.20
2022-09-21T11:52:24.440Z,17.20
2022-09-21T11:55:24.254Z,17.20
2022-09-21T11:57:59.639Z,17.20
2022-09-21T12:00:33.505Z,17.00
2022-09-21T12:03:50.728Z,17.00
2022-09-21T12:06:39.370Z,17.00
2022-09-21T12:09:37.319Z,17.40
2022-09-21T12:12:15.234Z,17.70
2022-09-21T12:14:54.021Z,17.80
2022-09-21T12:17:32.137Z,17.80
2022-09-21T12:20:10.100Z,17.80
2022-09-21T12:22:44.099Z,17.80
2022-09-21T12:25:21.087Z,17.70
2022-09-21T12:27:55.999Z,17.50
2022-09-21T12:30:25.396Z,17.30
2022-09-21T12:33:00.709Z,17.30
2022-09-21T12:35:38.807Z,17.30
2022-09-21T12:38:16.498Z,17.20
2022-09-21T12:40:51.714Z,17.20
2022-09-21T12:43:32.064Z,17.20
2022-09-21T12:46:04.043Z,17.20
2022-09-21T12:48:37.706Z,17.10
2022-09-21T12:51:13.696Z,17.10
2022-09-21T12:53:50.777Z,17.00
2022-09-21T12:56:38.982Z,17.00
2022-09-21T12:59:31.383Z,17.00
2022-09-21T13:02:17.414Z,16.90
2022-09-21T13:05:01.263Z,16.80
2022-09-21T13:08:12.299Z,16.80
2022-09-21T13:10:51.777Z,16.90
2022-09-21T13:13:32.393Z,16.90
2022-09-21T13:16:02.025Z,16.90
2022-09-21T13:18:36.282Z,16.80
2022-09-21T13:21:19.024Z,16.80
2022-09-21T13:23:56.491Z,16.90
2022-09-21T13:26:36.911Z,17.00
2022-09-21T13:29:27.170Z,17.00
2022-09-21T13:31:59.489Z,17.00
2022-09-21T13:34:36.569Z,17.00
2022-09-21T13:37:32.048Z,16.80
2022-09-21T13:40:50.716Z,16.90
2022-09-21T13:43:47.217Z,16.90
2022-09-21T13:46:52.189Z,16.80
2022-09-21T13:49:33.725Z,16.80
2022-09-21T13:52:05.638Z,16.80
2022-09-21T13:54:39.022Z,16.80
2022-09-21T13:57:20.578Z,16.90
2022-09-21T14:00:06.229Z,16.90
2022-09-21T14:02:38.338Z,16.90
2022-09-21T14:05:21.290Z,17.00
2022-09-21T14:07:56.820Z,17.00
2022-09-21T14:10:26.282Z,17.10
2022-09-21T14:12:54.691Z,17.10
2022-09-21T14:15:38.802Z,17.10
2022-09-21T14:18:38.416Z,17.10
2022-09-21T14:21:18.708Z,17.10
2022-09-21T14:24:21.217Z,17.10
2022-09-21T14:27:03.627Z,17.10
2022-09-21T14:29:44.275Z,17.10
2022-09-21T14:32:19.988Z,17.20
2022-09-21T14:34:51.077Z,17.10
2022-09-21T14:37:32.430Z,17.20
2022-09-21T14:40:05.901Z,17.20
2022-09-21T14:42:34.525Z,17.20
2022-09-21T14:45:04.303Z,17.30
2022-09-21T14:47:54.104Z,17.30
2022-09-21T14:50:32.385Z,17.30
2022-09-21T14:53:46.778Z,17.30
2022-09-21T14:56:37.060Z,17.40
2022-09-21T14:59:25.309Z,17.40
2022-09-21T15:01:59.933Z,17.50
2022-09-21T15:04:46.236Z,17.50
2022-09-21T15:07:55.994Z,17.50
2022-09-21T15:11:03.084Z,17.50
2022-09-21T15:14:14.273Z,17.40
2022-09-21T15:16:45.767Z,17.40
2022-09-21T15:19:24.001Z,17.40
2022-09-21T15:21:56.001Z,17.30
2022-09-21T15:24:31.754Z,17.30
2022-09-21T15:27:10.410Z,17.30
2022-09-21T15:29:40.275Z,17.20
2022-09-21T15:32:09.022Z,17.20
2022-09-21T15:34:37.533Z,17.20
2022-09-21T15:37:17.537Z,17.10
2022-09-21T15:39:46.111Z,17.00
2022-09-21T15:42:22.937Z,17.00
2022-09-21T15:45:06.022Z,16.90
2022-09-21T15:47:34.724Z,16.90
2022-09-21T15:50:03.260Z,16.80
2022-09-21T15:52:39.027Z,16.70
2022-09-21T15:55:19.180Z,16.60
2022-09-21T15:57:48.956Z,16.60
2022-09-21T16:00:24.848Z,16.50
2022-09-21T16:03:04.519Z,16.40
2022-09-21T16:05:44.242Z,16.30
2022-09-21T16:08:33.497Z,16.20
2022-09-21T16:11:28.138Z,16.20
2022-09-21T16:14:29.532Z,16.10
2022-09-21T16:17:25.611Z,16.00
2022-09-21T16:20:23.306Z,15.90
2022-09-21T16:22:54.796Z,15.90
2022-09-21T16:25:34.482Z,15.90
2022-09-21T16:28:06.091Z,15.90
2022-09-21T16:30:48.756Z,15.80
2022-09-21T16:33:42.409Z,15.80
2022-09-21T16:36:44.894Z,15.70
2022-09-21T16:39:17.309Z,15.70
2022-09-21T16:41:56.057Z,15.60
2022-09-21T16:44:26.629Z,15.50
2022-09-21T16:46:58.643Z,15.50
2022-09-21T16:49:31.285Z,15.40
2022-09-21T16:52:00.283Z,15.30
2022-09-21T16:54:29.761Z,15.30
2022-09-21T16:57:01.499Z,15.30
2022-09-21T16:59:30.590Z,15.20
2022-09-21T17:02:00.731Z,15.20
2022-09-21T17:04:32.381Z,15.10
2022-09-21T17:07:01.399Z,15.10
2022-09-21T17:09:33.256Z,15.00
2022-09-21T17:12:06.224Z,15.00
2022-09-21T17:14:36.601Z,14.90
2022-09-21T17:17:08.514Z,14.80
2022-09-21T17:19:37.104Z,14.70
2022-09-21T17:22:07.037Z,14.70
2022-09-21T17:24:50.304Z,14.60
2022-09-21T17:27:23.575Z,14.50
2022-09-21T17:29:53.942Z,14.40
2022-09-21T17:32:24.789Z,14.30
2022-09-21T17:34:59.756Z,14.10
2022-09-21T17:37:28.149Z,14.00
2022-09-21T17:39:56.453Z,14.00
2022-09-21T17:42:26.561Z,13.80
2022-09-21T17:45:12.511Z,13.80
2022-09-21T17:47:41.779Z,13.60
2022-09-21T17:50:23.075Z,13.50
2022-09-21T17:53:09.738Z,13.50
2022-09-21T17:55:40.350Z,13.40
2022-09-21T17:58:34.490Z,13.30
2022-09-21T18:01:08.488Z,13.10
2022-09-21T18:03:41.893Z,13.00
2022-09-21T18:06:12.288Z,12.90
2022-09-21T18:08:41.958Z,12.90
2022-09-21T18:11:34.669Z,12.80
2022-09-21T18:14:10.440Z,12.80
2022-09-21T18:16:48.892Z,12.70
2022-09-21T18:19:32.289Z,12.60
2022-09-21T18:22:13.864Z,12.50
2022-09-21T18:24:43.518Z,12.40
2022-09-21T18:27:13.437Z,12.40
2022-09-21T18:29:43.893Z,12.30
2022-09-21T18:32:46.446Z,12.20
2022-09-21T18:35:31.202Z,12.20
2022-09-21T18:38:13.912Z,12.20
2022-09-21T18:40:56.477Z,12.10
2022-09-21T18:43:36.379Z,12.10
2022-09-21T18:46:11.759Z,12.00
2022-09-21T18:48:56.828Z,11.80
2022-09-21T18:51:33.815Z,11.80
2022-09-21T18:54:02.528Z,11.80
2022-09-21T18:56:35.872Z,11.70
2022-09-21T18:59:07.139Z,11.60
2022-09-21T19:01:38.409Z,11.50
2022-09-21T19:04:07.875Z,11.50
2022-09-21T19:06:47.273Z,11.40
2022-09-21T19:09:33.221Z,11.40
2022-09-21T19:12:11.766Z,11.30
2022-09-21T19:14:51.141Z,11.30
2022-09-21T19:17:39.565Z,11.30
2022-09-21T19:20:31.104Z,11.30
2022-09-21T19:23:10.325Z,11.20
2022-09-21T19:25:49.495Z,11.10
2022-09-21T19:28:53.842Z,11.00
2022-09-21T19:31:22.937Z,10.90
2022-09-21T19:33:53.203Z,10.60
2022-09-21T19:36:23.717Z,10.40
2022-09-21T19:38:55.327Z,10.40
2022-09-21T19:41:38.150Z,10.40
2022-09-21T19:44:31.258Z,10.50
2022-09-21T19:47:07.617Z,10.50
2022-09-21T19:49:48.538Z,10.40
2022-09-21T19:52:20.099Z,10.40
2022-09-21T19:55:06.668Z,10.40
2022-09-21T19:58:08.024Z,10.30
2022-09-21T20:00:37.502Z,10.40
2022-09-21T20:03:11.459Z,10.40
2022-09-21T20:05:51.598Z,10.40
2022-09-21T20:08:27.508Z,10.30
2022-09-21T20:11:10.504Z,10.30
2022-09-21T20:13:59.846Z,10.20
2022-09-21T20:16:40.724Z,10.20
2022-09-21T20:19:42.595Z,10.20
2022-09-21T20:22:15.596Z,10.20
2022-09-21T20:24:53.095Z,10.20
2022-09-21T20:27:34.643Z,10.10
2022-09-21T20:30:03.691Z,10.00
2022-09-21T20:32:32.227Z,9.90
2022-09-21T20:35:00.444Z,9.90
2022-09-21T20:37:30.273Z,9.90
2022-09-21T20:39:58.503Z,9.90
2022-09-21T20:42:26.931Z,9.80
2022-09-21T20:44:55.737Z,9.80
2022-09-21T20:47:24.037Z,9.70
2022-09-21T20:49:52.467Z,9.70
2022-09-21T20:52:20.730Z,9.70
2022-09-21T20:54:50.772Z,9.60
2022-09-21T20:57:20.105Z,9.60
2022-09-21T20:59:48.585Z,9.60
2022-09-21T21:02:17.682Z,9.50
2022-09-21T21:04:45.948Z,9.50
2022-09-21T21:07:14.220Z,9.50
2022-09-21T21:09:42.489Z,9.50
2022-09-21T21:12:13.132Z,9.40
2022-09-21T21:14:41.417Z,9.40
2022-09-21T21:17:09.891Z,9.30
2022-09-21T21:19:38.139Z,9.30
2022-09-21T21:22:06.595Z,9.20
2022-09-21T21:24:44.163Z,9.20
2022-09-21T21:27:17.362Z,9.10
2022-09-21T21:29:46.606Z,9.00
2022-09-21T21:32:15.384Z,8.90
2022-09-21T21:34:44.477Z,8.80
2022-09-21T21:37:14.396Z,8.80
2022-09-21T21:39:42.598Z,8.80
2022-09-21T21:42:11.476Z,8.90
2022-09-21T21:44:41.157Z,8.90
2022-09-21T21:47:35.206Z,8.90
2022-09-21T21:49:58.517Z,8.80
2022-09-21T21:52:26.896Z,8.80
2022-09-21T21:54:55.427Z,8.80
2022-09-21T21:57:23.698Z,8.70
2022-09-21T21:59:53.301Z,8.80
2022-09-21T22:02:21.748Z,8.80
2022-09-21T22:04:50.039Z,8.80
2022-09-21T22:07:18.572Z,8.80
2022-09-21T22:09:46.822Z,8.70
2022-09-21T22:12:15.740Z,8.70
2022-09-21T22:14:46.306Z,8.70
2022-09-21T22:17:16.026Z,8.70
2022-09-21T22:19:45.070Z,8.70
2022-09-21T22:22:13.330Z,8.60
2022-09-21T22:24:41.528Z,8.60
2022-09-21T22:27:09.757Z,8.60
2022-09-21T22:29:39.520Z,8.70
2022-09-21T22:32:07.827Z,8.60
2022-09-21T22:34:37.424Z,8.60
2022-09-21T22:37:05.784Z,8.60
2022-09-21T22:39:34.050Z,8.60
2022-09-21T22:42:02.319Z,8.60
2022-09-21T22:44:30.942Z,8.50
2022-09-21T22:46:59.142Z,8.40
2022-09-21T22:49:27.396Z,8.20
2022-09-21T22:51:56.976Z,8.10
2022-09-21T22:54:26.688Z,8.00
2022-09-21T22:56:54.907Z,7.90
2022-09-21T22:59:23.198Z,7.90
2022-09-21T23:01:51.425Z,7.90
2022-09-21T23:04:20.756Z,7.90
2022-09-21T23:06:49.658Z,7.90
2022-09-21T23:09:21.804Z,7.90
2022-09-21T23:11:53.856Z,8.00
2022-09-21T23:14:23.422Z,8.00
2022-09-21T23:16:51.660Z,8.00
2022-09-21T23:19:19.905Z,8.00
2022-09-21T23:21:51.199Z,7.90
2022-09-21T23:24:21.927Z,7.90
2022-09-21T23:26:51.598Z,7.70
2022-09-21T23:29:20.087Z,7.70
2022-09-21T23:31:48.528Z,7.70
2022-09-21T23:34:17.464Z,7.70
2022-09-21T23:36:46.673Z,7.70
2022-09-21T23:39:16.547Z,7.70
2022-09-21T23:41:46.478Z,7.70
2022-09-21T23:44:14.835Z,7.70
2022-09-21T23:46:43.457Z,7.70
2022-09-21T23:49:12.041Z,7.70
2022-09-21T23:51:40.752Z,7.70
2022-09-21T23:54:09.259Z,7.70
2022-09-21T23:56:37.847Z,7.70
2022-09-21T23:59:07.614Z,7.70
